sensor_id;sensor_type;location;lat;lon;timestamp;pressure;altitude;pressure_sealevel;temperature;humidity
59513;BME280;45330;51.634;5.562;2022-09-30T00:00:59;100743.84;;;4.97;100.00
59513;BME280;45330;51.634;5.562;2022-09-30T00:03:24;100737.81;;;4.95;100.00
59513;BME280;45330;51.634;5.562;2022-09-30T00:06:01;100746.38;;;4.94;100.00
59513;BME280;45330;51.634;5.562;2022-09-30T00:08:27;100719.56;;;4.83;100.00
59513;BME280;45330;51.634;5.562;2022-09-30T00:11:06;100749.88;;;4.96;100.00
59513;BME280;45330;51.634;5.562;2022-09-30T00:13:34;100716.78;;;4.69;100.00
59513;BME280;45330;51.634;5.562;2022-09-30T00:16:00;100752.38;;;4.92;100.00
59513;BME280;45330;51.634;5.562;2022-09-30T00:18:27;100758.34;;;4.91;100.00
59513;BME280;45330;51.634;5.562;2022-09-30T00:20:52;100743.63;;;4.84;100.00
59513;BME280;45330;51.634;5.562;2022-09-30T00:23:19;100754.94;;;4.92;100.00
59513;BME280;45330;51.634;5.562;2022-09-30T00:25:46;100753.19;;;4.89;100.00
59513;BME280;45330;51.634;5.562;2022-09-30T00:28:13;100758.25;;;4.83;100.00
59513;BME280;45330;51.634;5.562;2022-09-30T00:30:38;100753.88;;;4.77;100.00
59513;BME280;45330;51.634;5.562;2022-09-30T00:33:04;100739.00;;;4.62;100.00
59513;BME280;45330;51.634;5.562;2022-09-30T00:35:29;100733.78;;;4.58;100.00
59513;BME280;45330;51.634;5.562;2022-09-30T00:37:55;100733.72;;;4.53;100.00
59513;BME280;45330;51.634;5.562;2022-09-30T00:40:21;100728.38;;;4.44;100.00
59513;BME280;45330;51.634;5.562;2022-09-30T00:42:46;100755.25;;;4.58;100.00
59513;BME280;45330;51.634;5.562;2022-09-30T00:45:12;100730.13;;;4.45;100.00
59513;BME280;45330;51.634;5.562;2022-09-30T00:48:06;100728.31;;;4.39;100.00
59513;BME280;45330;51.634;5.562;2022-09-30T00:50:41;100733.53;;;4.44;100.00
59513;BME280;45330;51.634;5.562;2022-09-30T00:53:16;100749.16;;;4.52;100.00
59513;BME280;45330;51.634;5.562;2022-09-30T00:55:47;100740.28;;;4.37;100.00
59513;BME280;45330;51.634;5.562;2022-09-30T00:58:30;100736.84;;;4.37;100.00
59513;BME280;45330;51.634;5.562;2022-09-30T01:01:00;100757.56;;;4.43;100.00
59513;BME280;45330;51.634;5.562;2022-09-30T01:03:39;100740.16;;;4.29;100.00
59513;BME280;45330;51.634;5.562;2022-09-30T01:06:05;100741.00;;;4.28;100.00
59513;BME280;45330;51.634;5.562;2022-09-30T01:08:32;100759.22;;;4.39;100.00
59513;BME280;45330;51.634;5.562;2022-09-30T01:11:00;100740.09;;;4.25;100.00
59513;BME280;45330;51.634;5.562;2022-09-30T01:13:26;100756.47;;;4.30;100.00
59513;BME280;45330;51.634;5.562;2022-09-30T01:16:10;100761.66;;;4.32;100.00
59513;BME280;45330;51.634;5.562;2022-09-30T01:27:24;100756.31;;;4.19;100.00
59513;BME280;45330;51.634;5.562;2022-09-30T01:33:00;100753.56;;;4.11;100.00
59513;BME280;45330;51.634;5.562;2022-09-30T01:46:37;100738.63;;;3.93;100.00
59513;BME280;45330;51.634;5.562;2022-09-30T01:51:44;100756.00;;;4.02;100.00
59513;BME280;45330;51.634;5.562;2022-09-30T01:54:23;100753.34;;;4.01;100.00
59513;BME280;45330;51.634;5.562;2022-09-30T01:57:00;100762.81;;;4.02;100.00
59513;BME280;45330;51.634;5.562;2022-09-30T01:59:34;100759.38;;;4.00;100.00
59513;BME280;45330;51.634;5.562;2022-09-30T02:02:09;100753.28;;;3.96;100.00
59513;BME280;45330;51.634;5.562;2022-09-30T02:04:42;100733.25;;;3.81;100.00
59513;BME280;45330;51.634;5.562;2022-09-30T02:07:17;100754.97;;;3.94;100.00
59513;BME280;45330;51.634;5.562;2022-09-30T02:09:51;100760.94;;;3.93;100.00
59513;BME280;45330;51.634;5.562;2022-09-30T02:12:20;100753.97;;;3.87;100.00
59513;BME280;45330;51.634;5.562;2022-09-30T02:14:58;100766.03;;;3.90;100.00
59513;BME280;45330;51.634;5.562;2022-09-30T02:17:29;100748.78;;;3.84;100.00
59513;BME280;45330;51.634;5.562;2022-09-30T02:20:06;100747.72;;;3.74;100.00
59513;BME280;45330;51.634;5.562;2022-09-30T02:22:44;100743.38;;;3.72;100.00
59513;BME280;45330;51.634;5.562;2022-09-30T02:25:15;100757.16;;;3.75;100.00
59513;BME280;45330;51.634;5.562;2022-09-30T02:27:50;100761.53;;;3.80;100.00
59513;BME280;45330;51.634;5.562;2022-09-30T02:30:18;100744.94;;;3.65;100.00
59513;BME280;45330;51.634;5.562;2022-09-30T02:32:50;100758.88;;;3.75;100.00
59513;BME280;45330;51.634;5.562;2022-09-30T02:35:21;100751.09;;;3.72;100.00
59513;BME280;45330;51.634;5.562;2022-09-30T02:37:53;100753.66;;;3.72;100.00
59513;BME280;45330;51.634;5.562;2022-09-30T02:40:34;100731.16;;;3.62;100.00
59513;BME280;45330;51.634;5.562;2022-09-30T02:43:04;100732.88;;;3.63;100.00
59513;BME280;45330;51.634;5.562;2022-09-30T02:48:28;100734.59;;;3.62;100.00
59513;BME280;45330;51.634;5.562;2022-09-30T02:51:02;100757.91;;;3.70;100.00
59513;BME280;45330;51.634;5.562;2022-09-30T02:53:40;100755.25;;;3.67;100.00
59513;BME280;45330;51.634;5.562;2022-09-30T02:59:04;100761.34;;;3.70;100.00
59513;BME280;45330;51.634;5.562;2022-09-30T03:01:29;100764.78;;;3.71;100.00
59513;BME280;45330;51.634;5.562;2022-09-30T03:04:07;100764.75;;;3.69;100.00
59513;BME280;45330;51.634;5.562;2022-09-30T03:06:35;100762.13;;;3.66;100.00
59513;BME280;45330;51.634;5.562;2022-09-30T03:09:01;100737.91;;;3.56;100.00
59513;BME280;45330;51.634;5.562;2022-09-30T03:11:27;100748.16;;;3.55;100.00
59513;BME280;45330;51.634;5.562;2022-09-30T03:17:23;100770.66;;;3.64;100.00
59513;BME280;45330;51.634;5.562;2022-09-30T03:26:42;100770.59;;;3.60;100.00
59513;BME280;45330;51.634;5.562;2022-09-30T03:29:20;100776.56;;;3.59;100.00
59513;BME280;45330;51.634;5.562;2022-09-30T03:31:51;100785.06;;;3.57;100.00
59513;BME280;45330;51.634;5.562;2022-09-30T03:34:24;100779.81;;;3.51;100.00
59513;BME280;45330;51.634;5.562;2022-09-30T03:36:59;100778.03;;;3.48;100.00
59513;BME280;45330;51.634;5.562;2022-09-30T03:42:19;100768.50;;;3.44;100.00
59513;BME280;45330;51.634;5.562;2022-09-30T03:47:21;100752.81;;;3.32;100.00
59513;BME280;45330;51.634;5.562;2022-09-30T03:49:52;100757.16;;;3.34;100.00
59513;BME280;45330;51.634;5.562;2022-09-30T03:52:20;100789.13;;;3.46;100.00
59513;BME280;45330;51.634;5.562;2022-09-30T03:54:49;100778.75;;;3.41;100.00
59513;BME280;45330;51.634;5.562;2022-09-30T03:57:16;100783.94;;;3.44;100.00
59513;BME280;45330;51.634;5.562;2022-09-30T03:59:41;100791.66;;;3.44;100.00
59513;BME280;45330;51.634;5.562;2022-09-30T04:02:06;100766.50;;;3.29;100.00
59513;BME280;45330;51.634;5.562;2022-09-30T04:04:40;100788.06;;;3.37;100.00
59513;BME280;45330;51.634;5.562;2022-09-30T04:07:07;100790.63;;;3.36;100.00
59513;BME280;45330;51.634;5.562;2022-09-30T04:09:33;100787.00;;;3.28;100.00
59513;BME280;45330;51.634;5.562;2022-09-30T04:11:58;100812.91;;;3.35;100.00
59513;BME280;45330;51.634;5.562;2022-09-30T04:14:24;100811.06;;;3.30;100.00
59513;BME280;45330;51.634;5.562;2022-09-30T04:16:49;100817.03;;;3.29;100.00
59513;BME280;45330;51.634;5.562;2022-09-30T04:19:14;100828.34;;;3.35;100.00
59513;BME280;45330;51.634;5.562;2022-09-30T04:21:40;100844.66;;;3.37;100.00
59513;BME280;45330;51.634;5.562;2022-09-30T04:24:05;100832.38;;;3.24;100.00
59513;BME280;45330;51.634;5.562;2022-09-30T04:26:31;100851.38;;;3.31;100.00
59513;BME280;45330;51.634;5.562;2022-09-30T04:28:56;100849.56;;;3.26;100.00
59513;BME280;45330;51.634;5.562;2022-09-30T04:31:23;100862.56;;;3.33;100.00
59513;BME280;45330;51.634;5.562;2022-09-30T04:33:49;100843.44;;;3.21;100.00
59513;BME280;45330;51.634;5.562;2022-09-30T04:36:15;100868.50;;;3.30;100.00
59513;BME280;45330;51.634;5.562;2022-09-30T04:38:41;100854.69;;;3.25;100.00
59513;BME280;45330;51.634;5.562;2022-09-30T04:41:07;100833.91;;;3.17;100.00
59513;BME280;45330;51.634;5.562;2022-09-30T04:43:35;100842.66;;;3.24;100.00
59513;BME280;45330;51.634;5.562;2022-09-30T04:46:01;100849.41;;;3.20;100.00
59513;BME280;45330;51.634;5.562;2022-09-30T04:48:26;100830.31;;;3.11;100.00
59513;BME280;45330;51.634;5.562;2022-09-30T04:50:56;100856.19;;;3.17;100.00
59513;BME280;45330;51.634;5.562;2022-09-30T04:53:22;100831.78;;;3.01;100.00
59513;BME280;45330;51.634;5.562;2022-09-30T04:55:47;100863.84;;;3.14;100.00
59513;BME280;45330;51.634;5.562;2022-09-30T04:58:13;100847.97;;;2.97;100.00
59513;BME280;45330;51.634;5.562;2022-09-30T05:00:39;100854.00;;;2.97;100.00
59513;BME280;45330;51.634;5.562;2022-09-30T05:03:04;100870.47;;;3.04;100.00
59513;BME280;45330;51.634;5.562;2022-09-30T05:05:31;100874.78;;;3.06;100.00
59513;BME280;45330;51.634;5.562;2022-09-30T05:08:04;100870.28;;;2.98;100.00
59513;BME280;45330;51.634;5.562;2022-09-30T05:10:29;100891.03;;;3.04;100.00
59513;BME280;45330;51.634;5.562;2022-09-30T05:12:55;100877.16;;;2.99;100.00
59513;BME280;45330;51.634;5.562;2022-09-30T05:15:21;100879.72;;;2.97;100.00
59513;BME280;45330;51.634;5.562;2022-09-30T05:17:50;100853.63;;;2.82;100.00
59513;BME280;45330;51.634;5.562;2022-09-30T05:20:15;100868.47;;;2.94;100.00
59513;BME280;45330;51.634;5.562;2022-09-30T05:22:40;100881.50;;;3.00;100.00
59513;BME280;45330;51.634;5.562;2022-09-30T05:25:06;100889.09;;;2.97;100.00
59513;BME280;45330;51.634;5.562;2022-09-30T05:27:32;100873.47;;;2.87;100.00
59513;BME280;45330;51.634;5.562;2022-09-30T05:29:57;100884.81;;;2.96;100.00
59513;BME280;45330;51.634;5.562;2022-09-30T05:32:23;100887.41;;;2.97;100.00
59513;BME280;45330;51.634;5.562;2022-09-30T05:34:49;100882.28;;;2.97;100.00
59513;BME280;45330;51.634;5.562;2022-09-30T05:37:14;100861.34;;;2.83;100.00
59513;BME280;45330;51.634;5.562;2022-09-30T05:39:40;100888.28;;;2.98;100.00
59513;BME280;45330;51.634;5.562;2022-09-30T05:42:06;100883.81;;;2.90;100.00
59513;BME280;45330;51.634;5.562;2022-09-30T05:44:31;100883.00;;;2.91;100.00
59513;BME280;45330;51.634;5.562;2022-09-30T05:46:57;100889.81;;;2.91;100.00
59513;BME280;45330;51.634;5.562;2022-09-30T05:49:24;100919.31;;;3.04;100.00
59513;BME280;45330;51.634;5.562;2022-09-30T05:51:50;100920.13;;;3.03;100.00
59513;BME280;45330;51.634;5.562;2022-09-30T05:54:15;100920.91;;;3.00;100.00
59513;BME280;45330;51.634;5.562;2022-09-30T05:56:41;100936.63;;;3.11;100.00
59513;BME280;45330;51.634;5.562;2022-09-30T05:59:06;100921.03;;;3.05;100.00
59513;BME280;45330;51.634;5.562;2022-09-30T06:01:32;100923.63;;;3.06;100.00
59513;BME280;45330;51.634;5.562;2022-09-30T06:03:57;100926.34;;;3.11;100.00
59513;BME280;45330;51.634;5.562;2022-09-30T06:06:24;100907.38;;;3.07;100.00
59513;BME280;45330;51.634;5.562;2022-09-30T06:08:49;100914.38;;;3.13;100.00
59513;BME280;45330;51.634;5.562;2022-09-30T06:11:18;100936.91;;;3.23;100.00
59513;BME280;45330;51.634;5.562;2022-09-30T06:13:45;100938.91;;;3.34;100.00
59513;BME280;45330;51.634;5.562;2022-09-30T06:16:14;100944.94;;;3.36;100.00
59513;BME280;45330;51.634;5.562;2022-09-30T06:18:40;100927.63;;;3.29;100.00
59513;BME280;45330;51.634;5.562;2022-09-30T06:21:07;100944.34;;;3.46;100.00
59513;BME280;45330;51.634;5.562;2022-09-30T06:23:33;100940.22;;;3.53;100.00
59513;BME280;45330;51.634;5.562;2022-09-30T06:26:00;100933.22;;;3.47;100.00
59513;BME280;45330;51.634;5.562;2022-09-30T06:28:26;100952.44;;;3.62;100.00
59513;BME280;45330;51.634;5.562;2022-09-30T06:30:52;100935.25;;;3.60;100.00
59513;BME280;45330;51.634;5.562;2022-09-30T06:33:19;100949.34;;;3.76;100.00
59513;BME280;45330;51.634;5.562;2022-09-30T06:35:45;100951.13;;;3.79;100.00
59513;BME280;45330;51.634;5.562;2022-09-30T06:38:15;100943.41;;;3.79;100.00
59513;BME280;45330;51.634;5.562;2022-09-30T06:40:42;100941.88;;;3.87;100.00
59513;BME280;45330;51.634;5.562;2022-09-30T06:43:07;100941.06;;;3.88;100.00
59513;BME280;45330;51.634;5.562;2022-09-30T06:45:34;100947.47;;;4.07;100.00
59513;BME280;45330;51.634;5.562;2022-09-30T06:48:02;100939.72;;;4.06;100.00
59513;BME280;45330;51.634;5.562;2022-09-30T06:50:29;100939.97;;;4.17;100.00
59513;BME280;45330;51.634;5.562;2022-09-30T06:52:59;100940.25;;;4.31;100.00
59513;BME280;45330;51.634;5.562;2022-09-30T06:55:26;100920.44;;;4.26;100.00
59513;BME280;45330;51.634;5.562;2022-09-30T06:57:53;100937.97;;;4.44;100.00
59513;BME280;45330;51.634;5.562;2022-09-30T07:00:19;100938.94;;;4.51;100.00
59513;BME280;45330;51.634;5.562;2022-09-30T07:02:45;100945.13;;;4.59;100.00
59513;BME280;45330;51.634;5.562;2022-09-30T07:05:13;100930.63;;;4.64;100.00
59513;BME280;45330;51.634;5.562;2022-09-30T07:07:40;100942.06;;;4.79;100.00
59513;BME280;45330;51.634;5.562;2022-09-30T07:10:06;100949.09;;;4.86;100.00
59513;BME280;45330;51.634;5.562;2022-09-30T07:12:32;100948.44;;;4.96;100.00
59513;BME280;45330;51.634;5.562;2022-09-30T07:14:57;100946.78;;;5.02;100.00
59513;BME280;45330;51.634;5.562;2022-09-30T07:17:24;100946.97;;;5.11;100.00
59513;BME280;45330;51.634;5.562;2022-09-30T07:19:50;100927.13;;;5.07;100.00
59513;BME280;45330;51.634;5.562;2022-09-30T07:22:17;100941.19;;;5.26;100.00
59513;BME280;45330;51.634;5.562;2022-09-30T07:24:59;100936.91;;;5.26;100.00
59513;BME280;45330;51.634;5.562;2022-09-30T07:27:28;100959.63;;;5.46;100.00
59513;BME280;45330;51.634;5.562;2022-09-30T07:29:55;100932.84;;;5.41;100.00
59513;BME280;45330;51.634;5.562;2022-09-30T07:32:21;100946.94;;;5.60;100.00
59513;BME280;45330;51.634;5.562;2022-09-30T07:34:47;100958.38;;;5.76;100.00
59513;BME280;45330;51.634;5.562;2022-09-30T07:37:14;100935.97;;;5.75;100.00
59513;BME280;45330;51.634;5.562;2022-09-30T07:39:44;100942.13;;;5.83;100.00
59513;BME280;45330;51.634;5.562;2022-09-30T07:42:11;100943.09;;;5.91;100.00
59513;BME280;45330;51.634;5.562;2022-09-30T07:44:38;100945.00;;;6.01;100.00
59513;BME280;45330;51.634;5.562;2022-09-30T07:47:06;100932.97;;;6.02;100.00
59513;BME280;45330;51.634;5.562;2022-09-30T07:49:32;100953.91;;;6.22;100.00
59513;BME280;45330;51.634;5.562;2022-09-30T07:51:58;100941.84;;;6.23;100.00
59513;BME280;45330;51.634;5.562;2022-09-30T07:54:27;100948.97;;;6.42;100.00
59513;BME280;45330;51.634;5.562;2022-09-30T07:56:53;100944.81;;;6.53;100.00
59513;BME280;45330;51.634;5.562;2022-09-30T07:59:19;100938.75;;;6.50;100.00
59513;BME280;45330;51.634;5.562;2022-09-30T08:01:45;100935.44;;;6.63;100.00
59513;BME280;45330;51.634;5.562;2022-09-30T08:04:12;100933.00;;;6.74;100.00
59513;BME280;45330;51.634;5.562;2022-09-30T08:06:43;100945.25;;;6.92;100.00
59513;BME280;45330;51.634;5.562;2022-09-30T08:09:10;100946.13;;;6.94;100.00
59513;BME280;45330;51.634;5.562;2022-09-30T08:11:37;100956.66;;;7.11;100.00
59513;BME280;45330;51.634;5.562;2022-09-30T08:14:03;100935.09;;;7.11;100.00
59513;BME280;45330;51.634;5.562;2022-09-30T08:16:28;100944.78;;;7.33;100.00
59513;BME280;45330;51.634;5.562;2022-09-30T08:18:55;100943.94;;;7.36;100.00
59513;BME280;45330;51.634;5.562;2022-09-30T08:21:22;100935.28;;;7.35;100.00
59513;BME280;45330;51.634;5.562;2022-09-30T08:23:48;100941.47;;;7.47;100.00
59513;BME280;45330;51.634;5.562;2022-09-30T08:26:14;100948.53;;;7.69;100.00
59513;BME280;45330;51.634;5.562;2022-09-30T08:28:40;100938.13;;;7.66;100.00
59513;BME280;45330;51.634;5.562;2022-09-30T08:31:08;100952.09;;;7.84;100.00
59513;BME280;45330;51.634;5.562;2022-09-30T08:33:34;100941.75;;;7.92;100.00
59513;BME280;45330;51.634;5.562;2022-09-30T08:36:13;100935.81;;;8.05;100.00
59513;BME280;45330;51.634;5.562;2022-09-30T08:38:39;100942.78;;;8.18;100.00
59513;BME280;45330;51.634;5.562;2022-09-30T08:46:42;100955.91;;;8.48;100.00
59513;BME280;45330;51.634;5.562;2022-09-30T08:51:53;100944.72;;;8.55;100.00
59513;BME280;45330;51.634;5.562;2022-09-30T08:54:23;100956.88;;;8.73;100.00
59513;BME280;45330;51.634;5.562;2022-09-30T08:56:50;100967.25;;;8.76;100.00
59513;BME280;45330;51.634;5.562;2022-09-30T08:59:32;100978.59;;;8.95;100.00
59513;BME280;45330;51.634;5.562;2022-09-30T09:04:44;100961.34;;;9.19;100.00
59513;BME280;45330;51.634;5.562;2022-09-30T09:10:10;100956.16;;;9.30;100.00
59513;BME280;45330;51.634;5.562;2022-09-30T09:12:55;100942.31;;;9.37;100.00
59513;BME280;45330;51.634;5.562;2022-09-30T09:16:01;100932.75;;;9.43;100.00
59513;BME280;45330;51.634;5.562;2022-09-30T09:21:20;100968.25;;;9.78;100.00
59513;BME280;45330;51.634;5.562;2022-09-30T09:23:48;100937.94;;;9.76;100.00
59513;BME280;45330;51.634;5.562;2022-09-30T09:26:16;100954.38;;;9.95;100.00
59513;BME280;45330;51.634;5.562;2022-09-30T09:31:16;100948.31;;;10.02;100.00
59513;BME280;45330;51.634;5.562;2022-09-30T09:33:43;100954.38;;;10.09;100.00
59513;BME280;45330;51.634;5.562;2022-09-30T09:36:35;100982.03;;;10.33;100.00
59513;BME280;45330;51.634;5.562;2022-09-30T09:41:41;100967.25;;;10.49;100.00
59513;BME280;45330;51.634;5.562;2022-09-30T09:44:25;100968.13;;;10.51;100.00
59513;BME280;45330;51.634;5.562;2022-09-30T09:46:52;100975.03;;;10.58;100.00
59513;BME280;45330;51.634;5.562;2022-09-30T09:54:24;100962.78;;;10.84;100.00
59513;BME280;45330;51.634;5.562;2022-09-30T09:56:53;100949.78;;;10.80;100.00
59513;BME280;45330;51.634;5.562;2022-09-30T09:59:19;100954.03;;;10.94;100.00
59513;BME280;45330;51.634;5.562;2022-09-30T10:04:24;100954.75;;;11.18;100.00
59513;BME280;45330;51.634;5.562;2022-09-30T10:06:59;100960.75;;;11.29;100.00
59513;BME280;45330;51.634;5.562;2022-09-30T10:09:34;100953.81;;;11.26;100.00
59513;BME280;45330;51.634;5.562;2022-09-30T10:14:31;100963.28;;;11.41;100.00
59513;BME280;45330;51.634;5.562;2022-09-30T10:17:02;100961.53;;;11.40;100.00
59513;BME280;45330;51.634;5.562;2022-09-30T10:19:30;100958.81;;;11.57;100.00
59513;BME280;45330;51.634;5.562;2022-09-30T10:24:36;100955.22;;;11.72;100.00
59513;BME280;45330;51.634;5.562;2022-09-30T10:27:02;100966.44;;;11.79;100.00
59513;BME280;45330;51.634;5.562;2022-09-30T10:29:33;100967.28;;;11.81;100.00
59513;BME280;45330;51.634;5.562;2022-09-30T10:31:59;100963.81;;;11.80;100.00
59513;BME280;45330;51.634;5.562;2022-09-30T10:34:26;100975.88;;;11.94;100.00
59513;BME280;45330;51.634;5.562;2022-09-30T10:36:55;100957.63;;;11.97;100.00
59513;BME280;45330;51.634;5.562;2022-09-30T10:39:25;100967.94;;;12.08;100.00
59513;BME280;45330;51.634;5.562;2022-09-30T10:42:02;100967.81;;;12.18;100.00
59513;BME280;45330;51.634;5.562;2022-09-30T10:44:35;100942.63;;;12.16;100.00
59513;BME280;45330;51.634;5.562;2022-09-30T10:47:06;100949.47;;;12.26;100.00
59513;BME280;45330;51.634;5.562;2022-09-30T10:49:42;100946.72;;;12.39;100.00
59513;BME280;45330;51.634;5.562;2022-09-30T10:52:31;100965.59;;;12.61;100.00
59513;BME280;45330;51.634;5.562;2022-09-30T10:54:59;100954.22;;;12.66;100.00
59513;BME280;45330;51.634;5.562;2022-09-30T10:57:32;100957.66;;;12.70;100.00
59513;BME280;45330;51.634;5.562;2022-09-30T11:00:01;100957.50;;;12.79;100.00
59513;BME280;45330;51.634;5.562;2022-09-30T11:02:36;100962.53;;;12.95;100.00
59513;BME280;45330;51.634;5.562;2022-09-30T11:05:15;100958.09;;;13.01;100.00
59513;BME280;45330;51.634;5.562;2022-09-30T11:08:11;100939.88;;;12.97;100.00
59513;BME280;45330;51.634;5.562;2022-09-30T11:13:39;100967.34;;;13.24;100.00
59513;BME280;45330;51.634;5.562;2022-09-30T11:19:02;100957.75;;;13.79;99.32
59513;BME280;45330;51.634;5.562;2022-09-30T11:21:40;100951.81;;;13.69;98.82
59513;BME280;45330;51.634;5.562;2022-09-30T11:34:55;100946.69;;;14.12;93.48
59513;BME280;45330;51.634;5.562;2022-09-30T11:40:34;100928.63;;;13.98;93.89
59513;BME280;45330;51.634;5.562;2022-09-30T11:43:27;100941.72;;;13.98;95.90
59513;BME280;45330;51.634;5.562;2022-09-30T11:56:51;100909.09;;;14.16;89.12
59513;BME280;45330;51.634;5.562;2022-09-30T11:59:30;100913.59;;;14.09;88.31
59513;BME280;45330;51.634;5.562;2022-09-30T12:02:00;100895.56;;;13.95;85.94
59513;BME280;45330;51.634;5.562;2022-09-30T12:04:30;100904.81;;;14.12;86.14
59513;BME280;45330;51.634;5.562;2022-09-30T12:07:04;100924.31;;;14.40;86.20
59513;BME280;45330;51.634;5.562;2022-09-30T12:09:39;100918.69;;;14.59;84.42
59513;BME280;45330;51.634;5.562;2022-09-30T12:12:09;100906.41;;;14.61;83.55
59513;BME280;45330;51.634;5.562;2022-09-30T12:17:27;100901.66;;;14.39;82.92
59513;BME280;45330;51.634;5.562;2022-09-30T12:19:58;100910.88;;;14.57;82.50
59513;BME280;45330;51.634;5.562;2022-09-30T12:22:40;100902.91;;;14.64;82.61
59513;BME280;45330;51.634;5.562;2022-09-30T12:25:35;100905.41;;;14.70;83.34
59513;BME280;45330;51.634;5.562;2022-09-30T12:28:07;100902.28;;;14.91;82.98
59513;BME280;45330;51.634;5.562;2022-09-30T12:37:06;100894.63;;;15.54;75.48
59513;BME280;45330;51.634;5.562;2022-09-30T12:47:55;100875.63;;;14.72;83.31
59513;BME280;45330;51.634;5.562;2022-09-30T12:50:26;100879.78;;;14.83;80.24
59513;BME280;45330;51.634;5.562;2022-09-30T12:52:55;100859.09;;;15.08;78.88
59513;BME280;45330;51.634;5.562;2022-09-30T12:55:30;100868.41;;;15.54;76.51
59513;BME280;45330;51.634;5.562;2022-09-30T12:58:02;100856.97;;;15.90;69.04
59513;BME280;45330;51.634;5.562;2022-09-30T13:00:31;100855.59;;;16.08;70.61
59513;BME280;45330;51.634;5.562;2022-09-30T13:03:07;100855.09;;;15.95;70.98
59513;BME280;45330;51.634;5.562;2022-09-30T13:15:42;100865.88;;;15.50;71.60
59513;BME280;45330;51.634;5.562;2022-09-30T13:23:40;100859.59;;;15.90;71.55
59513;BME280;45330;51.634;5.562;2022-09-30T13:28:48;100856.41;;;15.78;70.28
59513;BME280;45330;51.634;5.562;2022-09-30T13:31:21;100864.41;;;15.74;72.26
59513;BME280;45330;51.634;5.562;2022-09-30T13:34:10;100843.56;;;15.68;73.90
59513;BME280;45330;51.634;5.562;2022-09-30T13:36:39;100863.44;;;15.76;68.62
59513;BME280;45330;51.634;5.562;2022-09-30T13:47:18;100829.84;;;15.91;68.71
59513;BME280;45330;51.634;5.562;2022-09-30T13:50:12;100830.59;;;15.94;67.92
59513;BME280;45330;51.634;5.562;2022-09-30T13:52:36;100827.19;;;15.92;67.17
59513;BME280;45330;51.634;5.562;2022-09-30T13:55:14;100817.81;;;15.84;67.90
59513;BME280;45330;51.634;5.562;2022-09-30T14:00:19;100826.38;;;16.20;68.49
59513;BME280;45330;51.634;5.562;2022-09-30T14:05:32;100821.72;;;16.28;69.61
59513;BME280;45330;51.634;5.562;2022-09-30T14:16:38;100815.00;;;16.48;67.63
59513;BME280;45330;51.634;5.562;2022-09-30T14:22:02;100798.41;;;15.89;69.02
59513;BME280;45330;51.634;5.562;2022-09-30T14:24:32;100796.25;;;15.71;67.63
59513;BME280;45330;51.634;5.562;2022-09-30T14:32:30;100795.41;;;15.39;71.48
59513;BME280;45330;51.634;5.562;2022-09-30T14:34:58;100785.13;;;15.30;72.06
59513;BME280;45330;51.634;5.562;2022-09-30T14:37:35;100795.44;;;15.37;73.87
59513;BME280;45330;51.634;5.562;2022-09-30T14:40:02;100798.28;;;15.28;71.78
59513;BME280;45330;51.634;5.562;2022-09-30T14:42:35;100785.41;;;15.20;72.61
59513;BME280;45330;51.634;5.562;2022-09-30T14:45:06;100785.63;;;15.11;72.98
59513;BME280;45330;51.634;5.562;2022-09-30T14:47:35;100795.19;;;15.14;74.03
59513;BME280;45330;51.634;5.562;2022-09-30T14:50:08;100785.94;;;14.99;75.62
59513;BME280;45330;51.634;5.562;2022-09-30T14:52:40;100779.97;;;14.94;74.50
59513;BME280;45330;51.634;5.562;2022-09-30T14:57:50;100794.94;;;14.88;75.34
59513;BME280;45330;51.634;5.562;2022-09-30T15:00:34;100787.94;;;14.89;77.29
59513;BME280;45330;51.634;5.562;2022-09-30T15:03:00;100782.72;;;14.87;78.81
59513;BME280;45330;51.634;5.562;2022-09-30T15:05:26;100778.16;;;14.96;76.66
59513;BME280;45330;51.634;5.562;2022-09-30T15:07:52;100785.84;;;15.02;74.95
59513;BME280;45330;51.634;5.562;2022-09-30T15:10:22;100788.41;;;15.05;73.83
59513;BME280;45330;51.634;5.562;2022-09-30T15:12:49;100791.69;;;15.13;74.36
59513;BME280;45330;51.634;5.562;2022-09-30T15:15:42;100790.56;;;15.23;73.63
59513;BME280;45330;51.634;5.562;2022-09-30T15:20:53;100780.00;;;15.26;68.37
59513;BME280;45330;51.634;5.562;2022-09-30T15:23:26;100783.50;;;15.25;68.88
59513;BME280;45330;51.634;5.562;2022-09-30T15:25:52;100784.38;;;15.26;67.29
59513;BME280;45330;51.634;5.562;2022-09-30T15:28:18;100773.91;;;15.24;69.65
59513;BME280;45330;51.634;5.562;2022-09-30T15:30:44;100774.00;;;15.21;70.33
59513;BME280;45330;51.634;5.562;2022-09-30T15:33:17;100793.94;;;15.27;71.51
59513;BME280;45330;51.634;5.562;2022-09-30T15:35:44;100788.88;;;15.21;69.58
59513;BME280;45330;51.634;5.562;2022-09-30T15:38:17;100793.38;;;15.16;70.58
59513;BME280;45330;51.634;5.562;2022-09-30T15:40:47;100793.69;;;15.03;68.93
59513;BME280;45330;51.634;5.562;2022-09-30T15:43:40;100788.56;;;14.99;70.29
59513;BME280;45330;51.634;5.562;2022-09-30T15:46:32;100786.09;;;14.92;69.99
59513;BME280;45330;51.634;5.562;2022-09-30T15:49:03;100792.41;;;14.85;68.99
59513;BME280;45330;51.634;5.562;2022-09-30T15:51:31;100794.44;;;14.72;69.51
59513;BME280;45330;51.634;5.562;2022-09-30T15:54:23;100792.13;;;14.58;69.75
59513;BME280;45330;51.634;5.562;2022-09-30T15:56:46;100796.78;;;14.46;72.19
59513;BME280;45330;51.634;5.562;2022-09-30T15:59:13;100803.16;;;14.34;74.11
59513;BME280;45330;51.634;5.562;2022-09-30T16:01:41;100782.63;;;14.15;75.52
59513;BME280;45330;51.634;5.562;2022-09-30T16:06:50;100803.34;;;14.24;74.89
59513;BME280;45330;51.634;5.562;2022-09-30T16:11:42;100793.06;;;14.17;73.48